Poolville, Texas
Current Conditions -  °F | °C
As of 10:15 PM on Saturday 25 Oct 2014 (Local Time) from KXBP Reporting Station
Clear Clear  
Wind Chill: 77°   Ceiling: Unl
Heat Index: 79°   Visibility: 10mi
Dew Point: 60°   Wind: 8mph
Humidity: 56%   Direction: 180°S
Pressure: 30.06"   Gusts: NA
Location:  32.97°N, 97.86°W
Report Text: KXBP 260315Z AUTO 18007KT 10SM CLR 25/16 A3006 RMK AO2 T02500158
Loading
Personal Weather Stations






























Interactive Weather Map
Tropical Storm Tracking
New forecast layout! Learn more

10-Day Weather Forecast

Advertisements
Track Severe Weather on mobile